createdAt,value
2023-04-21T00:01:22.265Z,11.30
2023-04-21T00:03:49.505Z,11.30
2023-04-21T00:06:22.305Z,11.30
2023-04-21T00:08:49.938Z,11.20
2023-04-21T00:11:16.776Z,11.20
2023-04-21T00:13:43.508Z,11.10
2023-04-21T00:16:10.383Z,11.10
2023-04-21T00:18:37.152Z,11.00
2023-04-21T00:21:03.875Z,11.00
2023-04-21T00:23:30.583Z,10.90
2023-04-21T00:25:57.242Z,10.80
2023-04-21T00:28:24.064Z,10.80
2023-04-21T00:30:50.891Z,10.80
2023-04-21T00:33:17.448Z,10.70
2023-04-21T00:35:44.040Z,10.70
2023-04-21T00:38:10.588Z,10.70
2023-04-21T00:40:37.244Z,10.60
2023-04-21T00:43:07.412Z,10.60
2023-04-21T00:45:34.063Z,10.60
2023-04-21T00:48:00.775Z,10.60
2023-04-21T00:50:27.742Z,10.60
2023-04-21T00:52:55.282Z,10.60
2023-04-21T00:55:22.192Z,10.60
2023-04-21T00:57:50.123Z,10.60
2023-04-21T01:00:17.673Z,10.60
2023-04-21T01:02:45.605Z,10.60
2023-04-21T01:05:12.735Z,10.60
2023-04-21T01:07:39.613Z,10.60
2023-04-21T01:10:06.964Z,10.60
2023-04-21T01:12:33.536Z,10.60
2023-04-21T01:15:00.758Z,10.60
2023-04-21T01:17:27.380Z,10.60
2023-04-21T01:19:56.495Z,10.60
2023-04-21T01:22:23.170Z,10.60
2023-04-21T01:24:49.914Z,10.60
2023-04-21T01:27:21.300Z,10.60
2023-04-21T01:29:50.707Z,10.60
2023-04-21T01:32:21.319Z,10.60
2023-04-21T01:34:48.719Z,10.50
2023-04-21T01:37:20.919Z,10.50
2023-04-21T01:39:54.193Z,10.50
2023-04-21T01:42:22.916Z,10.60
2023-04-21T01:44:49.638Z,10.50
2023-04-21T01:47:17.338Z,10.50
2023-04-21T01:49:43.926Z,10.50
2023-04-21T01:52:10.660Z,10.50
2023-04-21T01:54:37.294Z,10.50
2023-04-21T01:57:04.391Z,10.50
2023-04-21T01:59:31.062Z,10.50
2023-04-21T02:01:57.706Z,10.50
2023-04-21T02:04:24.482Z,10.50
2023-04-21T02:06:51.275Z,10.50
2023-04-21T02:09:18.287Z,10.50
2023-04-21T02:11:45.154Z,10.50
2023-04-21T02:14:16.776Z,10.50
2023-04-21T02:16:43.703Z,10.40
2023-04-21T02:19:10.532Z,10.40
2023-04-21T02:21:37.124Z,10.40
2023-04-21T02:24:03.959Z,10.40
2023-04-21T02:26:30.676Z,10.30
2023-04-21T02:28:57.298Z,10.30
2023-04-21T02:31:23.921Z,10.30
2023-04-21T02:33:50.533Z,10.30
2023-04-21T02:36:17.134Z,10.30
2023-04-21T02:38:43.739Z,10.20
2023-04-21T02:41:10.421Z,10.30
2023-04-21T02:43:37.020Z,10.20
2023-04-21T02:46:07.650Z,10.20
2023-04-21T02:48:35.414Z,10.20
2023-04-21T02:51:02.055Z,10.20
2023-04-21T02:53:28.984Z,10.20
2023-04-21T02:55:56.348Z,10.20
2023-04-21T02:58:23.339Z,10.20
2023-04-21T03:00:50.037Z,10.10
2023-04-21T03:03:16.882Z,10.10
2023-04-21T03:05:43.620Z,10.10
2023-04-21T03:08:10.244Z,10.10
2023-04-21T03:10:38.276Z,10.10
2023-04-21T03:13:04.896Z,10.10
2023-04-21T03:15:31.518Z,10.10
2023-04-21T03:17:58.117Z,10.00
2023-04-21T03:20:24.755Z,10.00
2023-04-21T03:22:53.615Z,10.00
2023-04-21T03:25:20.420Z,9.90
2023-04-21T03:27:47.027Z,9.90
2023-04-21T03:30:13.645Z,9.90
2023-04-21T03:32:40.402Z,9.90
2023-04-21T03:35:07.196Z,9.80
2023-04-21T03:37:33.767Z,9.80
2023-04-21T03:40:01.020Z,9.80
2023-04-21T03:42:29.681Z,9.70
2023-04-21T03:44:56.276Z,9.80
2023-04-21T03:47:22.927Z,9.70
2023-04-21T03:49:49.484Z,9.70
2023-04-21T03:52:16.094Z,9.70
2023-04-21T03:54:42.659Z,9.70
2023-04-21T03:57:09.247Z,9.70
2023-04-21T03:59:35.807Z,9.70
2023-04-21T04:02:02.498Z,9.60
2023-04-21T04:04:29.252Z,9.60
2023-04-21T04:06:55.969Z,9.60
2023-04-21T04:09:22.679Z,9.60
2023-04-21T04:11:49.722Z,9.60
2023-04-21T04:14:16.340Z,9.50
2023-04-21T04:16:42.964Z,9.50
2023-04-21T04:19:09.606Z,9.50
2023-04-21T04:21:36.212Z,9.50
2023-04-21T04:24:03.231Z,9.50
2023-04-21T04:26:29.847Z,9.10
2023-04-21T04:28:56.524Z,9.40
2023-04-21T04:31:25.478Z,9.40
2023-04-21T04:33:54.918Z,9.40
2023-04-21T04:36:22.435Z,9.40
2023-04-21T04:38:49.160Z,9.50
2023-04-21T04:41:16.658Z,9.50
2023-04-21T04:43:43.895Z,9.50
2023-04-21T04:46:12.985Z,9.60
2023-04-21T04:48:40.143Z,9.60
2023-04-21T04:51:06.842Z,9.70
2023-04-21T04:53:33.444Z,9.40
2023-04-21T04:56:00.033Z,9.70
2023-04-21T04:58:26.812Z,9.70
2023-04-21T05:00:53.484Z,9.70
2023-04-21T05:03:20.335Z,9.80
2023-04-21T05:05:47.053Z,9.80
2023-04-21T05:08:15.694Z,9.90
2023-04-21T05:10:43.737Z,9.90
2023-04-21T05:13:10.314Z,9.90
2023-04-21T05:15:36.912Z,10.00
2023-04-21T05:18:03.639Z,10.00
2023-04-21T05:20:30.258Z,10.10
2023-04-21T05:22:56.844Z,10.10
2023-04-21T05:25:23.504Z,10.20
2023-04-21T05:27:50.281Z,10.20
2023-04-21T05:30:16.873Z,10.30
2023-04-21T05:32:43.530Z,10.40
2023-04-21T05:35:10.668Z,10.80
2023-04-21T05:37:37.225Z,11.20
2023-04-21T05:40:04.005Z,11.50
2023-04-21T05:42:31.070Z,11.60
2023-04-21T05:44:58.080Z,11.90
2023-04-21T05:47:24.694Z,12.50
2023-04-21T05:49:54.407Z,13.10
2023-04-21T05:52:21.776Z,13.60
2023-04-21T05:54:48.357Z,14.10
2023-04-21T05:57:16.634Z,14.20
2023-04-21T05:59:43.780Z,14.00
2023-04-21T06:02:11.021Z,13.70
2023-04-21T06:04:37.806Z,13.60
2023-04-21T06:07:09.066Z,13.40
2023-04-21T06:09:36.275Z,13.30
2023-04-21T06:12:03.574Z,13.40
2023-04-21T06:14:30.221Z,13.60
2023-04-21T06:16:56.797Z,13.80
2023-04-21T06:19:23.681Z,13.80
2023-04-21T06:21:50.669Z,13.80
2023-04-21T06:24:24.356Z,13.80
2023-04-21T06:26:52.593Z,13.60
2023-04-21T06:29:19.904Z,13.60
2023-04-21T06:31:46.669Z,13.60
2023-04-21T06:34:13.315Z,13.70
2023-04-21T06:36:39.935Z,14.00
2023-04-21T06:39:06.558Z,14.20
2023-04-21T06:41:33.273Z,14.40
2023-04-21T06:43:59.852Z,14.60
2023-04-21T06:46:26.516Z,14.70
2023-04-21T06:48:53.158Z,15.10
2023-04-21T06:51:19.769Z,15.50
2023-04-21T06:53:46.314Z,15.90
2023-04-21T06:56:12.888Z,16.20
2023-04-21T06:58:39.421Z,16.30
2023-04-21T07:01:06.048Z,16.20
2023-04-21T07:03:32.800Z,16.00
2023-04-21T07:05:59.457Z,16.10
2023-04-21T07:08:26.390Z,16.10
2023-04-21T07:10:52.950Z,16.10
2023-04-21T07:13:19.589Z,16.10
2023-04-21T07:15:46.329Z,16.10
2023-04-21T07:18:12.922Z,16.10
2023-04-21T07:20:39.800Z,16.20
2023-04-21T07:23:06.654Z,16.20
2023-04-21T07:25:33.205Z,16.30
2023-04-21T07:27:59.863Z,16.10
2023-04-21T07:30:26.647Z,15.90
2023-04-21T07:32:53.422Z,15.70
2023-04-21T07:35:20.077Z,15.90
2023-04-21T07:37:46.794Z,16.10
2023-04-21T07:40:14.165Z,16.20
2023-04-21T07:42:40.863Z,16.10
2023-04-21T07:45:07.961Z,16.00
2023-04-21T07:47:34.881Z,15.90
2023-04-21T07:50:01.820Z,15.70
2023-04-21T07:52:28.756Z,15.60
2023-04-21T07:54:55.415Z,15.50
2023-04-21T07:57:22.054Z,15.30
2023-04-21T07:59:48.657Z,15.20
2023-04-21T08:02:15.461Z,15.30
2023-04-21T08:04:42.169Z,15.30
2023-04-21T08:07:10.081Z,15.20
2023-04-21T08:09:36.868Z,15.30
2023-04-21T08:12:03.579Z,15.30
2023-04-21T08:14:30.278Z,15.40
2023-04-21T08:16:57.499Z,15.60
2023-04-21T08:19:24.565Z,15.50
2023-04-21T08:21:51.190Z,15.60
2023-04-21T08:24:17.899Z,15.60
2023-04-21T08:26:44.974Z,15.60
2023-04-21T08:29:13.243Z,15.70
2023-04-21T08:31:40.152Z,15.70
2023-04-21T08:34:07.281Z,15.90
2023-04-21T08:36:34.570Z,16.00
2023-04-21T08:39:01.552Z,16.10
2023-04-21T08:41:28.435Z,16.20
2023-04-21T08:43:55.215Z,16.10
2023-04-21T08:46:22.769Z,16.10
2023-04-21T08:48:49.550Z,16.20
2023-04-21T08:51:23.218Z,16.20
2023-04-21T08:53:50.005Z,16.20
2023-04-21T08:56:16.642Z,16.20
2023-04-21T08:58:43.252Z,16.20
2023-04-21T09:01:09.885Z,16.20
2023-04-21T09:03:36.721Z,16.40
2023-04-21T09:06:09.236Z,16.60
2023-04-21T09:08:39.901Z,16.60
2023-04-21T09:11:06.629Z,16.70
2023-04-21T09:13:35.284Z,16.90
2023-04-21T09:16:14.748Z,17.10
2023-04-21T09:18:44.105Z,17.30
2023-04-21T09:21:12.860Z,17.50
2023-04-21T09:23:50.283Z,17.10
2023-04-21T09:26:18.022Z,17.20
2023-04-21T09:28:46.184Z,17.20
2023-04-21T09:31:21.017Z,17.40
2023-04-21T09:33:57.759Z,17.50
2023-04-21T09:36:30.424Z,17.60
2023-04-21T09:39:29.206Z,17.80
2023-04-21T09:41:49.471Z,18.00
2023-04-21T09:44:17.592Z,18.00
2023-04-21T09:46:48.516Z,18.00
2023-04-21T09:49:17.495Z,18.10
2023-04-21T09:52:10.464Z,18.10
2023-04-21T09:54:34.038Z,18.10
2023-04-21T09:57:04.907Z,18.20
2023-04-21T09:59:37.239Z,18.20
2023-04-21T10:02:08.185Z,18.30
2023-04-21T10:04:37.203Z,18.30
2023-04-21T10:07:04.511Z,18.40
2023-04-21T10:09:36.784Z,18.50
2023-04-21T10:12:05.948Z,18.60
2023-04-21T10:14:34.358Z,18.60
2023-04-21T10:17:06.305Z,18.70
2023-04-21T10:19:41.660Z,18.80
2023-04-21T10:22:09.740Z,18.80
2023-04-21T10:24:41.040Z,18.70
2023-04-21T10:27:32.167Z,18.80
2023-04-21T10:29:59.225Z,18.80
2023-04-21T10:32:43.051Z,18.80
2023-04-21T10:35:22.322Z,18.90
2023-04-21T10:37:51.477Z,18.90
2023-04-21T10:40:42.642Z,19.00
2023-04-21T10:43:42.695Z,19.00
2023-04-21T10:46:38.609Z,19.10
2023-04-21T10:49:09.570Z,19.10
2023-04-21T10:52:07.214Z,19.30
2023-04-21T10:55:04.030Z,19.30
2023-04-21T10:57:35.193Z,19.40
2023-04-21T11:00:06.180Z,19.30
2023-04-21T11:02:37.376Z,19.40
2023-04-21T11:05:06.661Z,19.40
2023-04-21T11:07:33.345Z,19.50
2023-04-21T11:10:05.415Z,19.40
2023-04-21T11:12:41.865Z,19.50
2023-04-21T11:15:10.660Z,19.50
2023-04-21T11:17:39.607Z,19.40
2023-04-21T11:20:07.195Z,19.60
2023-04-21T11:22:34.228Z,19.70
2023-04-21T11:25:00.937Z,19.70
2023-04-21T11:27:30.014Z,19.60
2023-04-21T11:29:57.466Z,19.70
2023-04-21T11:32:24.554Z,19.90
2023-04-21T11:34:51.245Z,20.00
2023-04-21T11:37:25.060Z,19.90
2023-04-21T11:40:00.621Z,20.00
2023-04-21T11:42:27.926Z,20.00
2023-04-21T11:44:56.363Z,19.70
2023-04-21T11:47:25.436Z,19.80
2023-04-21T11:50:01.407Z,19.90
2023-04-21T11:52:33.658Z,19.90
2023-04-21T11:55:20.758Z,20.10
2023-04-21T11:57:49.762Z,20.00
2023-04-21T12:00:16.985Z,20.10
2023-04-21T12:02:44.478Z,20.10
2023-04-21T12:05:12.832Z,20.10
2023-04-21T12:07:44.079Z,20.20
2023-04-21T12:10:13.126Z,20.10
2023-04-21T12:12:41.086Z,20.20
2023-04-21T12:15:11.420Z,20.30
2023-04-21T12:17:49.041Z,20.40
2023-04-21T12:20:17.502Z,20.60
2023-04-21T12:22:45.006Z,20.50
2023-04-21T12:25:11.842Z,20.50
2023-04-21T12:27:47.855Z,20.40
2023-04-21T12:30:14.579Z,20.40
2023-04-21T12:32:41.415Z,20.30
2023-04-21T12:35:09.094Z,20.40
2023-04-21T12:37:36.210Z,20.60
2023-04-21T12:40:03.274Z,20.70
2023-04-21T12:42:29.931Z,20.80
2023-04-21T12:44:56.836Z,20.90
2023-04-21T12:47:23.474Z,20.70
2023-04-21T12:49:50.228Z,20.80
2023-04-21T12:52:16.801Z,20.80
2023-04-21T12:54:44.657Z,20.60
2023-04-21T12:57:11.529Z,20.80
2023-04-21T12:59:38.158Z,20.70
2023-04-21T13:02:05.008Z,20.60
2023-04-21T13:04:32.319Z,20.40
2023-04-21T13:06:59.326Z,20.20
2023-04-21T13:09:26.411Z,20.30
2023-04-21T13:11:53.988Z,20.40
2023-04-21T13:14:20.750Z,20.50
2023-04-21T13:16:47.439Z,20.40
2023-04-21T13:19:14.052Z,20.40
2023-04-21T13:21:41.425Z,20.50
2023-04-21T13:24:08.216Z,20.60
2023-04-21T13:26:35.416Z,20.60
2023-04-21T13:29:03.557Z,20.60
2023-04-21T13:31:30.667Z,20.60
2023-04-21T13:33:57.416Z,20.60
2023-04-21T13:36:24.255Z,20.50
2023-04-21T13:38:53.796Z,20.40
2023-04-21T13:41:20.724Z,20.30
2023-04-21T13:43:47.338Z,20.20
2023-04-21T13:46:14.633Z,20.20
2023-04-21T13:48:41.513Z,20.20
2023-04-21T13:51:08.163Z,20.10
2023-04-21T13:53:34.969Z,20.00
2023-04-21T13:56:01.680Z,20.00
2023-04-21T13:58:30.661Z,20.10
2023-04-21T14:00:57.466Z,20.20
2023-04-21T14:03:24.481Z,20.30
2023-04-21T14:05:51.347Z,20.30
2023-04-21T14:08:18.372Z,20.30
2023-04-21T14:10:45.040Z,20.20
2023-04-21T14:13:20.217Z,20.10
2023-04-21T14:15:50.522Z,20.20
2023-04-21T14:18:18.179Z,20.30
2023-04-21T14:20:45.949Z,20.40
2023-04-21T14:23:12.507Z,20.30
2023-04-21T14:31:02.681Z,20.50
2023-04-21T14:33:29.669Z,20.40
2023-04-21T14:35:56.887Z,20.40
2023-04-21T14:38:23.613Z,20.30
2023-04-21T14:40:51.391Z,20.30
2023-04-21T14:43:17.961Z,20.20
2023-04-21T14:45:44.620Z,20.20
2023-04-21T14:48:14.087Z,20.20
2023-04-21T14:50:41.438Z,20.20
2023-04-21T14:53:08.422Z,20.20
2023-04-21T14:55:37.156Z,20.20
2023-04-21T14:58:04.095Z,20.20
2023-04-21T15:00:31.859Z,20.30
2023-04-21T15:02:59.141Z,20.20
2023-04-21T15:05:26.395Z,20.10
2023-04-21T15:07:53.071Z,20.00
2023-04-21T15:10:19.660Z,20.00
2023-04-21T15:12:46.368Z,20.10
2023-04-21T15:15:13.156Z,20.10
2023-04-21T15:17:39.849Z,20.00
2023-04-21T15:20:07.264Z,19.90
2023-04-21T15:22:33.831Z,20.10
2023-04-21T15:25:00.566Z,20.10
2023-04-21T15:27:30.145Z,20.20
2023-04-21T15:29:56.797Z,20.00
2023-04-21T15:32:23.716Z,20.00
2023-04-21T15:34:50.360Z,20.00
2023-04-21T15:37:17.684Z,20.00
2023-04-21T15:39:44.264Z,20.00
2023-04-21T15:42:10.864Z,20.00
2023-04-21T15:44:38.987Z,20.00
2023-04-21T15:47:06.319Z,20.00
2023-04-21T15:49:32.996Z,20.00
2023-04-21T15:51:59.822Z,19.90
2023-04-21T15:54:26.533Z,19.70
2023-04-21T15:56:53.157Z,19.70
2023-04-21T15:59:19.757Z,19.50
2023-04-21T16:01:46.492Z,19.60
2023-04-21T16:04:13.409Z,19.70
2023-04-21T16:06:40.553Z,19.60
2023-04-21T16:09:07.191Z,19.60
2023-04-21T16:11:34.271Z,19.50
2023-04-21T16:14:01.258Z,19.50
2023-04-21T16:16:28.046Z,19.40
2023-04-21T16:18:54.769Z,19.40
2023-04-21T16:21:21.385Z,19.40
2023-04-21T16:23:50.661Z,19.30
2023-04-21T16:26:17.230Z,19.20
2023-04-21T16:28:43.805Z,19.20
2023-04-21T16:31:10.507Z,19.10
2023-04-21T16:33:37.202Z,19.10
2023-04-21T16:36:07.051Z,19.10
2023-04-21T16:38:34.077Z,19.50
2023-04-21T16:41:00.686Z,19.00
2023-04-21T16:43:27.273Z,19.00
2023-04-21T16:45:54.092Z,19.00
2023-04-21T16:48:20.838Z,19.00
2023-04-21T16:50:47.508Z,18.90
2023-04-21T16:53:14.305Z,18.90
2023-04-21T16:55:41.011Z,18.90
2023-04-21T16:58:07.727Z,18.90
2023-04-21T17:00:35.831Z,18.90
2023-04-21T17:03:02.688Z,18.80
2023-04-21T17:05:29.382Z,18.80
2023-04-21T17:07:56.358Z,18.70
2023-04-21T17:10:24.345Z,17.60
2023-04-21T17:12:50.938Z,18.60
2023-04-21T17:15:17.921Z,18.50
2023-04-21T17:17:45.040Z,18.70
2023-04-21T17:20:14.264Z,18.40
2023-04-21T17:22:42.256Z,18.40
2023-04-21T17:25:09.994Z,18.40
2023-04-21T17:27:37.557Z,18.30
2023-04-21T17:30:05.666Z,18.20
2023-04-21T17:32:34.045Z,18.20
2023-04-21T17:35:01.363Z,18.10
2023-04-21T17:37:29.459Z,18.10
2023-04-21T17:39:56.789Z,18.00
2023-04-21T17:42:23.386Z,17.90
2023-04-21T17:44:50.187Z,17.90
2023-04-21T17:47:16.846Z,17.90
2023-04-21T17:49:43.511Z,17.80
2023-04-21T17:52:10.317Z,17.80
2023-04-21T17:54:37.236Z,17.70
2023-04-21T17:57:04.465Z,17.60
2023-04-21T17:59:31.304Z,17.60
2023-04-21T18:01:59.124Z,18.40
2023-04-21T18:04:27.387Z,17.40
2023-04-21T18:06:54.206Z,17.40
2023-04-21T18:09:21.405Z,17.30
2023-04-21T18:11:48.328Z,17.20
2023-04-21T18:14:15.370Z,17.20
2023-04-21T18:16:41.982Z,17.10
2023-04-21T18:19:08.754Z,17.00
2023-04-21T18:21:35.429Z,17.00
2023-04-21T18:24:02.112Z,16.90
2023-04-21T18:26:28.787Z,16.80
2023-04-21T18:28:58.145Z,16.80
2023-04-21T18:31:26.295Z,16.70
2023-04-21T18:33:53.088Z,16.60
2023-04-21T18:36:19.704Z,16.60
2023-04-21T18:38:46.818Z,16.50
2023-04-21T18:41:13.758Z,16.50
2023-04-21T18:43:40.660Z,16.40
2023-04-21T18:46:07.496Z,16.30
2023-04-21T18:48:34.058Z,16.30
2023-04-21T18:51:00.723Z,16.20
2023-04-21T18:53:27.489Z,16.20
2023-04-21T18:55:54.079Z,16.10
2023-04-21T18:58:20.926Z,15.80
2023-04-21T19:00:47.751Z,16.00
2023-04-21T19:03:14.961Z,16.00
2023-04-21T19:05:42.070Z,15.90
2023-04-21T19:08:09.728Z,15.90
2023-04-21T19:10:38.122Z,15.90
2023-04-21T19:13:05.154Z,15.80
2023-04-21T19:15:31.833Z,15.60
2023-04-21T19:17:59.370Z,15.70
2023-04-21T19:20:26.217Z,15.70
2023-04-21T19:22:52.787Z,15.70
2023-04-21T19:25:19.731Z,15.60
2023-04-21T19:27:47.774Z,15.60
2023-04-21T19:30:14.544Z,15.50
2023-04-21T19:32:41.590Z,15.50
2023-04-21T19:35:08.581Z,15.50
2023-04-21T19:37:36.127Z,15.40
2023-04-21T19:40:06.229Z,15.40
2023-04-21T19:42:32.940Z,15.40
2023-04-21T19:44:59.528Z,15.40
2023-04-21T19:47:26.285Z,15.30
2023-04-21T19:49:53.139Z,15.30
2023-04-21T19:52:19.779Z,15.20
2023-04-21T19:54:46.691Z,15.20
2023-04-21T19:57:13.364Z,15.20
2023-04-21T19:59:40.133Z,15.10
2023-04-21T20:02:07.451Z,15.10
2023-04-21T20:04:34.715Z,15.10
2023-04-21T20:07:01.676Z,15.10
2023-04-21T20:09:28.400Z,15.00
2023-04-21T20:11:55.051Z,15.00
2023-04-21T20:14:21.929Z,15.00
2023-04-21T20:16:48.573Z,14.90
2023-04-21T20:19:17.107Z,14.90
2023-04-21T20:21:44.237Z,14.90
2023-04-21T20:24:10.993Z,14.80
2023-04-21T20:26:37.756Z,14.80
2023-04-21T20:29:04.421Z,14.80
2023-04-21T20:31:31.282Z,14.80
2023-04-21T20:33:58.165Z,15.40
2023-04-21T20:36:25.175Z,14.70
2023-04-21T20:38:52.093Z,14.70
2023-04-21T20:41:19.143Z,14.70
2023-04-21T20:43:49.351Z,14.70
2023-04-21T20:46:17.791Z,14.60
2023-04-21T20:48:44.454Z,14.30
2023-04-21T20:51:11.087Z,14.60
2023-04-21T20:53:37.646Z,14.60
2023-04-21T20:56:04.303Z,14.50
2023-04-21T20:58:31.186Z,14.50
2023-04-21T21:00:57.790Z,14.50
2023-04-21T21:03:24.593Z,14.40
2023-04-21T21:05:51.397Z,14.40
2023-04-21T21:08:17.994Z,14.40
2023-04-21T21:10:44.662Z,14.40
2023-04-21T21:13:11.256Z,14.30
2023-04-21T21:15:37.863Z,14.30
2023-04-21T21:18:04.828Z,14.30
2023-04-21T21:20:31.410Z,14.20
2023-04-21T21:22:58.156Z,14.20
2023-04-21T21:25:24.743Z,14.10
2023-04-21T21:27:51.348Z,14.10
2023-04-21T21:30:17.939Z,14.10
2023-04-21T21:32:44.880Z,14.00
2023-04-21T21:35:12.132Z,14.00
2023-04-21T21:37:42.089Z,14.00
2023-04-21T21:40:09.634Z,14.00
2023-04-21T21:42:37.502Z,13.90
2023-04-21T21:45:04.590Z,13.90
2023-04-21T21:47:31.422Z,13.90
2023-04-21T21:49:59.110Z,13.80
2023-04-21T21:52:26.581Z,13.80
2023-04-21T21:54:53.902Z,13.70
2023-04-21T21:57:21.458Z,13.70
2023-04-21T21:59:48.593Z,13.70
2023-04-21T22:02:15.840Z,13.80
2023-04-21T22:04:42.979Z,13.70
2023-04-21T22:07:09.610Z,13.80
2023-04-21T22:09:37.278Z,13.70
2023-04-21T22:12:04.444Z,13.70
2023-04-21T22:14:31.097Z,13.70
2023-04-21T22:16:57.719Z,13.70
2023-04-21T22:19:25.878Z,13.70
2023-04-21T22:21:52.647Z,13.70
2023-04-21T22:24:19.251Z,13.70
2023-04-21T22:26:46.506Z,13.70
2023-04-21T22:29:13.395Z,13.60
2023-04-21T22:31:40.020Z,13.60
2023-04-21T22:34:06.696Z,13.60
2023-04-21T22:36:33.276Z,13.50
2023-04-21T22:39:00.318Z,13.50
2023-04-21T22:41:27.523Z,13.50
2023-04-21T22:43:54.249Z,13.40
2023-04-21T22:46:20.911Z,13.30
2023-04-21T22:48:48.802Z,13.30
2023-04-21T22:51:15.418Z,13.30
2023-04-21T22:53:42.065Z,13.30
2023-04-21T22:56:08.651Z,13.20
2023-04-21T22:58:35.915Z,13.20
2023-04-21T23:01:02.695Z,13.20
2023-04-21T23:03:31.128Z,14.40
2023-04-21T23:05:57.926Z,13.20
2023-04-21T23:08:24.517Z,13.20
2023-04-21T23:10:51.608Z,13.10
2023-04-21T23:13:18.214Z,13.10
2023-04-21T23:15:44.913Z,13.00
2023-04-21T23:18:11.540Z,13.00
2023-04-21T23:20:38.464Z,12.90
2023-04-21T23:23:05.517Z,12.90
2023-04-21T23:25:32.112Z,12.80
2023-04-21T23:27:58.687Z,12.80
2023-04-21T23:30:25.274Z,12.70
2023-04-21T23:32:51.917Z,12.70
2023-04-21T23:35:18.702Z,12.70
2023-04-21T23:37:46.421Z,12.70
2023-04-21T23:40:13.144Z,12.40
2023-04-21T23:42:39.907Z,12.80
2023-04-21T23:45:07.500Z,12.70
2023-04-21T23:47:34.135Z,12.70
2023-04-21T23:50:00.856Z,12.50
2023-04-21T23:52:27.684Z,12.50
2023-04-21T23:54:54.322Z,12.50
2023-04-21T23:57:21.198Z,12.40
2023-04-21T23:59:47.860Z,12.30
